sensor_id;sensor_type;location;lat;lon;timestamp;pressure;altitude;pressure_sealevel;temperature;humidity
53940;BME280;39850;43.324;21.916;2023-04-09T00:24:24;995.0;;;7.6;73.0
53940;BME280;39850;43.324;21.916;2023-04-09T00:29:01;995.0;;;7.6;73.0
53940;BME280;39850;43.324;21.916;2023-04-09T00:33:38;995.0;;;7.6;73.0
53940;BME280;39850;43.324;21.916;2023-04-09T00:38:15;995.0;;;7.4;73.0
53940;BME280;39850;43.324;21.916;2023-04-09T00:42:52;995.0;;;7.4;73.0
53940;BME280;39850;43.324;21.916;2023-04-09T00:47:31;995.0;;;7.3;73.0
53940;BME280;39850;43.324;21.916;2023-04-09T00:52:10;995.0;;;7.3;73.0
53940;BME280;39850;43.324;21.916;2023-04-09T00:56:48;995.0;;;7.2;74.0
53940;BME280;39850;43.324;21.916;2023-04-09T01:01:25;995.0;;;7.2;74.0
53940;BME280;39850;43.324;21.916;2023-04-09T01:06:50;995.0;;;7.3;75.0
53940;BME280;39850;43.324;21.916;2023-04-09T01:12:01;995.0;;;7.3;75.0
53940;BME280;39850;43.324;21.916;2023-04-09T01:45:48;995.0;;;6.5;75.0
53940;BME280;39850;43.324;21.916;2023-04-09T01:50:28;995.0;;;6.5;75.0
53940;BME280;39850;43.324;21.916;2023-04-09T01:55:08;995.0;;;6.4;76.0
53940;BME280;39850;43.324;21.916;2023-04-09T01:59:44;995.0;;;6.4;76.0
53940;BME280;39850;43.324;21.916;2023-04-09T02:04:41;995.0;;;6.2;76.0
53940;BME280;39850;43.324;21.916;2023-04-09T02:09:26;995.0;;;6.2;76.0
53940;BME280;39850;43.324;21.916;2023-04-09T02:14:12;995.0;;;6.2;76.0
53940;BME280;39850;43.324;21.916;2023-04-09T02:18:55;995.0;;;6.2;76.0
53940;BME280;39850;43.324;21.916;2023-04-09T02:23:32;995.0;;;6.2;76.0
53940;BME280;39850;43.324;21.916;2023-04-09T02:28:09;995.0;;;6.2;76.0
53940;BME280;39850;43.324;21.916;2023-04-09T02:32:46;995.0;;;6.2;76.0
53940;BME280;39850;43.324;21.916;2023-04-09T03:05:10;995.0;;;6.2;76.0
53940;BME280;39850;43.324;21.916;2023-04-09T03:09:47;995.0;;;6.2;76.0
53940;BME280;39850;43.324;21.916;2023-04-09T03:14:24;995.0;;;6.2;76.0
53940;BME280;39850;43.324;21.916;2023-04-09T03:19:01;995.0;;;6.2;76.0
53940;BME280;39850;43.324;21.916;2023-04-09T03:23:38;995.0;;;6.2;76.0
53940;BME280;39850;43.324;21.916;2023-04-09T03:28:15;995.0;;;6.3;77.0
53940;BME280;39850;43.324;21.916;2023-04-09T03:32:52;995.0;;;6.3;77.0
53940;BME280;39850;43.324;21.916;2023-04-09T03:37:29;995.0;;;6.3;77.0
53940;BME280;39850;43.324;21.916;2023-04-09T03:42:06;995.0;;;6.3;77.0
53940;BME280;39850;43.324;21.916;2023-04-09T03:46:44;995.0;;;6.3;77.0
53940;BME280;39850;43.324;21.916;2023-04-09T03:51:20;995.0;;;6.3;77.0
53940;BME280;39850;43.324;21.916;2023-04-09T04:28:12;995.0;;;6.2;77.0
53940;BME280;39850;43.324;21.916;2023-04-09T04:32:49;995.0;;;6.2;77.0
53940;BME280;39850;43.324;21.916;2023-04-09T04:37:26;995.0;;;6.2;77.0
53940;BME280;39850;43.324;21.916;2023-04-09T04:42:03;995.0;;;6.2;77.0
53940;BME280;39850;43.324;21.916;2023-04-09T04:46:40;995.0;;;6.6;77.0
53940;BME280;39850;43.324;21.916;2023-04-09T04:51:17;995.0;;;6.6;77.0
53940;BME280;39850;43.324;21.916;2023-04-09T04:55:54;995.0;;;7.1;76.0
53940;BME280;39850;43.324;21.916;2023-04-09T05:00:31;995.0;;;7.1;76.0
53940;BME280;39850;43.324;21.916;2023-04-09T05:05:09;995.0;;;7.1;76.0
53940;BME280;39850;43.324;21.916;2023-04-09T05:09:46;995.0;;;7.1;76.0
53940;BME280;39850;43.324;21.916;2023-04-09T05:14:22;995.0;;;7.1;76.0
53940;BME280;39850;43.324;21.916;2023-04-09T05:46:40;995.0;;;8.4;72.0
53940;BME280;39850;43.324;21.916;2023-04-09T05:51:17;995.0;;;8.4;72.0
53940;BME280;39850;43.324;21.916;2023-04-09T05:55:54;996.0;;;8.7;71.0
53940;BME280;39850;43.324;21.916;2023-04-09T06:00:30;996.0;;;8.7;71.0
53940;BME280;39850;43.324;21.916;2023-04-09T06:05:09;996.0;;;8.7;71.0
53940;BME280;39850;43.324;21.916;2023-04-09T06:09:46;996.0;;;9.0;69.0
53940;BME280;39850;43.324;21.916;2023-04-09T06:14:23;996.0;;;9.0;69.0
53940;BME280;39850;43.324;21.916;2023-04-09T06:18:59;996.0;;;9.4;69.0
53940;BME280;39850;43.324;21.916;2023-04-09T06:23:36;996.0;;;9.4;69.0
53940;BME280;39850;43.324;21.916;2023-04-09T06:28:13;996.0;;;9.7;69.0
53940;BME280;39850;43.324;21.916;2023-04-09T06:32:50;996.0;;;9.7;69.0
53940;BME280;39850;43.324;21.916;2023-04-09T07:09:45;996.0;;;12.3;58.0
53940;BME280;39850;43.324;21.916;2023-04-09T07:14:21;996.0;;;12.3;58.0
53940;BME280;39850;43.324;21.916;2023-04-09T07:18:58;996.0;;;11.9;60.0
53940;BME280;39850;43.324;21.916;2023-04-09T07:23:36;996.0;;;11.9;60.0
53940;BME280;39850;43.324;21.916;2023-04-09T07:28:13;996.0;;;11.4;62.0
53940;BME280;39850;43.324;21.916;2023-04-09T07:32:49;996.0;;;11.4;62.0
53940;BME280;39850;43.324;21.916;2023-04-09T07:37:26;996.0;;;11.2;62.0
53940;BME280;39850;43.324;21.916;2023-04-09T07:42:05;996.0;;;11.2;62.0
53940;BME280;39850;43.324;21.916;2023-04-09T07:46:43;996.0;;;11.1;63.0
53940;BME280;39850;43.324;21.916;2023-04-09T07:51:20;996.0;;;11.1;63.0
53940;BME280;39850;43.324;21.916;2023-04-09T08:37:26;996.0;;;12.7;60.0
53940;BME280;39850;43.324;21.916;2023-04-09T08:42:12;996.0;;;12.7;60.0
53940;BME280;39850;43.324;21.916;2023-04-09T08:46:50;996.0;;;12.5;60.0
53940;BME280;39850;43.324;21.916;2023-04-09T08:51:27;996.0;;;12.5;60.0
53940;BME280;39850;43.324;21.916;2023-04-09T08:56:05;996.0;;;12.5;60.0
53940;BME280;39850;43.324;21.916;2023-04-09T09:00:42;996.0;;;12.5;60.0
53940;BME280;39850;43.324;21.916;2023-04-09T09:05:43;996.0;;;12.5;60.0
53940;BME280;39850;43.324;21.916;2023-04-09T09:10:30;996.0;;;12.3;60.0
53940;BME280;39850;43.324;21.916;2023-04-09T09:15:29;996.0;;;12.3;60.0
53940;BME280;39850;43.324;21.916;2023-04-09T09:48:17;995.0;;;13.7;60.0
53940;BME280;39850;43.324;21.916;2023-04-09T09:53:10;995.0;;;13.7;60.0
53940;BME280;39850;43.324;21.916;2023-04-09T09:57:57;995.0;;;13.7;60.0
53940;BME280;39850;43.324;21.916;2023-04-09T10:03:13;995.0;;;13.7;60.0
53940;BME280;39850;43.324;21.916;2023-04-09T10:07:57;995.0;;;13.7;60.0
53940;BME280;39850;43.324;21.916;2023-04-09T10:12:35;995.0;;;13.7;60.0
53940;BME280;39850;43.324;21.916;2023-04-09T10:17:13;995.0;;;13.7;60.0
53940;BME280;39850;43.324;21.916;2023-04-09T10:22:11;995.0;;;13.7;60.0
53940;BME280;39850;43.324;21.916;2023-04-09T10:27:11;995.0;;;13.7;60.0
53940;BME280;39850;43.324;21.916;2023-04-09T10:32:05;995.0;;;13.7;60.0
53940;BME280;39850;43.324;21.916;2023-04-09T11:10:12;995.0;;;12.6;60.0
53940;BME280;39850;43.324;21.916;2023-04-09T11:14:49;995.0;;;12.6;60.0
53940;BME280;39850;43.324;21.916;2023-04-09T11:19:26;995.0;;;12.6;60.0
53940;BME280;39850;43.324;21.916;2023-04-09T11:24:04;995.0;;;12.6;60.0
53940;BME280;39850;43.324;21.916;2023-04-09T11:28:43;995.0;;;12.6;60.0
53940;BME280;39850;43.324;21.916;2023-04-09T11:33:21;995.0;;;12.6;60.0
53940;BME280;39850;43.324;21.916;2023-04-09T11:37:57;995.0;;;12.2;60.0
53940;BME280;39850;43.324;21.916;2023-04-09T11:42:35;995.0;;;12.2;60.0
53940;BME280;39850;43.324;21.916;2023-04-09T11:47:15;995.0;;;11.8;61.0
53940;BME280;39850;43.324;21.916;2023-04-09T11:51:53;995.0;;;11.8;61.0
53940;BME280;39850;43.324;21.916;2023-04-09T12:29:19;995.0;;;10.9;78.0
53940;BME280;39850;43.324;21.916;2023-04-09T12:33:56;995.0;;;10.9;78.0
53940;BME280;39850;43.324;21.916;2023-04-09T12:38:32;995.0;;;10.9;78.0
53940;BME280;39850;43.324;21.916;2023-04-09T12:43:09;995.0;;;10.9;78.0
53940;BME280;39850;43.324;21.916;2023-04-09T12:47:46;995.0;;;10.9;78.0
53940;BME280;39850;43.324;21.916;2023-04-09T12:52:24;995.0;;;10.9;78.0
53940;BME280;39850;43.324;21.916;2023-04-09T12:57:00;995.0;;;10.9;78.0
53940;BME280;39850;43.324;21.916;2023-04-09T13:01:37;995.0;;;10.9;78.0
53940;BME280;39850;43.324;21.916;2023-04-09T13:06:14;995.0;;;10.9;78.0
53940;BME280;39850;43.324;21.916;2023-04-09T13:47:46;995.0;;;9.4;82.0
53940;BME280;39850;43.324;21.916;2023-04-09T13:52:24;995.0;;;9.4;82.0
53940;BME280;39850;43.324;21.916;2023-04-09T13:57:02;995.0;;;9.2;83.0
53940;BME280;39850;43.324;21.916;2023-04-09T14:01:39;995.0;;;9.2;83.0
53940;BME280;39850;43.324;21.916;2023-04-09T14:06:15;995.0;;;9.2;83.0
53940;BME280;39850;43.324;21.916;2023-04-09T14:10:52;995.0;;;9.1;84.0
53940;BME280;39850;43.324;21.916;2023-04-09T14:15:29;995.0;;;9.1;84.0
53940;BME280;39850;43.324;21.916;2023-04-09T14:20:09;995.0;;;9.0;85.0
53940;BME280;39850;43.324;21.916;2023-04-09T14:24:46;995.0;;;9.0;85.0
53940;BME280;39850;43.324;21.916;2023-04-09T14:29:23;995.0;;;9.1;86.0
53940;BME280;39850;43.324;21.916;2023-04-09T14:34:00;995.0;;;9.1;86.0
53940;BME280;39850;43.324;21.916;2023-04-09T15:10:51;995.0;;;8.3;88.0
53940;BME280;39850;43.324;21.916;2023-04-09T15:15:28;995.0;;;8.3;88.0
53940;BME280;39850;43.324;21.916;2023-04-09T15:20:09;995.0;;;8.2;88.0
53940;BME280;39850;43.324;21.916;2023-04-09T15:24:46;995.0;;;8.2;88.0
53940;BME280;39850;43.324;21.916;2023-04-09T15:29:23;995.0;;;8.0;88.0
53940;BME280;39850;43.324;21.916;2023-04-09T15:34:00;995.0;;;8.0;88.0
53940;BME280;39850;43.324;21.916;2023-04-09T15:38:36;995.0;;;8.0;88.0
53940;BME280;39850;43.324;21.916;2023-04-09T15:43:13;995.0;;;8.0;88.0
53940;BME280;39850;43.324;21.916;2023-04-09T15:47:50;995.0;;;8.0;89.0
53940;BME280;39850;43.324;21.916;2023-04-09T15:52:27;995.0;;;8.0;89.0
53940;BME280;39850;43.324;21.916;2023-04-09T15:57:04;995.0;;;8.0;89.0
53940;BME280;39850;43.324;21.916;2023-04-09T16:38:37;994.0;;;8.0;87.0
53940;BME280;39850;43.324;21.916;2023-04-09T16:43:14;994.0;;;8.0;87.0
53940;BME280;39850;43.324;21.916;2023-04-09T16:47:52;994.0;;;8.0;88.0
53940;BME280;39850;43.324;21.916;2023-04-09T16:52:29;994.0;;;8.0;88.0
53940;BME280;39850;43.324;21.916;2023-04-09T16:57:05;994.0;;;8.0;88.0
53940;BME280;39850;43.324;21.916;2023-04-09T17:01:43;994.0;;;8.0;88.0
53940;BME280;39850;43.324;21.916;2023-04-09T17:06:19;994.0;;;8.0;88.0
53940;BME280;39850;43.324;21.916;2023-04-09T17:10:56;994.0;;;8.0;88.0
53940;BME280;39850;43.324;21.916;2023-04-09T17:15:33;994.0;;;8.0;88.0
53940;BME280;39850;43.324;21.916;2023-04-09T17:47:51;994.0;;;9.0;86.0
53940;BME280;39850;43.324;21.916;2023-04-09T17:52:27;994.0;;;9.0;86.0
53940;BME280;39850;43.324;21.916;2023-04-09T17:57:06;994.0;;;9.0;86.0
53940;BME280;39850;43.324;21.916;2023-04-09T18:01:43;994.0;;;8.5;87.0
53940;BME280;39850;43.324;21.916;2023-04-09T18:06:20;994.0;;;8.5;87.0
53940;BME280;39850;43.324;21.916;2023-04-09T18:10:57;995.0;;;8.3;87.0
53940;BME280;39850;43.324;21.916;2023-04-09T18:15:34;995.0;;;8.3;87.0
53940;BME280;39850;43.324;21.916;2023-04-09T18:20:13;995.0;;;8.2;87.0
53940;BME280;39850;43.324;21.916;2023-04-09T18:24:50;995.0;;;8.2;87.0
53940;BME280;39850;43.324;21.916;2023-04-09T18:29:29;995.0;;;8.3;87.0
53940;BME280;39850;43.324;21.916;2023-04-09T18:34:06;995.0;;;8.3;87.0
53940;BME280;39850;43.324;21.916;2023-04-09T19:10:59;995.0;;;10.0;84.0
53940;BME280;39850;43.324;21.916;2023-04-09T19:15:35;995.0;;;10.0;84.0
53940;BME280;39850;43.324;21.916;2023-04-09T19:20:13;995.0;;;10.0;84.0
53940;BME280;39850;43.324;21.916;2023-04-09T19:24:50;995.0;;;10.0;84.0
53940;BME280;39850;43.324;21.916;2023-04-09T19:29:27;995.0;;;10.0;84.0
53940;BME280;39850;43.324;21.916;2023-04-09T19:34:05;995.0;;;10.0;84.0
53940;BME280;39850;43.324;21.916;2023-04-09T19:38:42;995.0;;;10.0;84.0
53940;BME280;39850;43.324;21.916;2023-04-09T19:43:18;995.0;;;10.0;84.0
53940;BME280;39850;43.324;21.916;2023-04-09T19:47:55;995.0;;;10.0;84.0
53940;BME280;39850;43.324;21.916;2023-04-09T19:52:32;995.0;;;10.0;85.0
53940;BME280;39850;43.324;21.916;2023-04-09T19:57:09;995.0;;;10.0;85.0
53940;BME280;39850;43.324;21.916;2023-04-09T20:29:25;995.0;;;9.4;86.0
53940;BME280;39850;43.324;21.916;2023-04-09T20:34:02;995.0;;;9.4;86.0
53940;BME280;39850;43.324;21.916;2023-04-09T20:38:38;995.0;;;9.7;87.0
53940;BME280;39850;43.324;21.916;2023-04-09T20:43:15;995.0;;;9.7;87.0
53940;BME280;39850;43.324;21.916;2023-04-09T20:47:51;995.0;;;9.7;87.0
53940;BME280;39850;43.324;21.916;2023-04-09T20:52:28;995.0;;;10.0;87.0
53940;BME280;39850;43.324;21.916;2023-04-09T20:57:05;995.0;;;10.0;87.0
53940;BME280;39850;43.324;21.916;2023-04-09T21:01:42;995.0;;;10.0;87.0
53940;BME280;39850;43.324;21.916;2023-04-09T21:06:19;995.0;;;10.0;87.0
53940;BME280;39850;43.324;21.916;2023-04-09T21:10:56;995.0;;;10.0;87.0
53940;BME280;39850;43.324;21.916;2023-04-09T21:15:33;995.0;;;10.0;87.0
53940;BME280;39850;43.324;21.916;2023-04-09T21:52:30;995.0;;;9.0;86.0
53940;BME280;39850;43.324;21.916;2023-04-09T21:57:07;995.0;;;9.0;86.0
53940;BME280;39850;43.324;21.916;2023-04-09T22:01:44;995.0;;;9.4;85.0
53940;BME280;39850;43.324;21.916;2023-04-09T22:06:21;995.0;;;9.4;85.0
53940;BME280;39850;43.324;21.916;2023-04-09T22:10:57;995.0;;;9.7;86.0
53940;BME280;39850;43.324;21.916;2023-04-09T22:15:34;995.0;;;9.7;86.0
53940;BME280;39850;43.324;21.916;2023-04-09T22:20:11;995.0;;;9.7;85.0
53940;BME280;39850;43.324;21.916;2023-04-09T22:24:48;995.0;;;9.7;85.0
53940;BME280;39850;43.324;21.916;2023-04-09T22:29:28;995.0;;;9.7;86.0
53940;BME280;39850;43.324;21.916;2023-04-09T22:34:04;995.0;;;9.7;86.0
53940;BME280;39850;43.324;21.916;2023-04-09T23:10:56;994.0;;;10.0;86.0
53940;BME280;39850;43.324;21.916;2023-04-09T23:15:33;994.0;;;10.0;86.0
53940;BME280;39850;43.324;21.916;2023-04-09T23:20:11;994.0;;;10.0;86.0
53940;BME280;39850;43.324;21.916;2023-04-09T23:24:48;994.0;;;10.0;86.0
53940;BME280;39850;43.324;21.916;2023-04-09T23:29:25;994.0;;;10.0;86.0
53940;BME280;39850;43.324;21.916;2023-04-09T23:34:02;994.0;;;10.0;86.0
53940;BME280;39850;43.324;21.916;2023-04-09T23:38:38;994.0;;;10.0;86.0
53940;BME280;39850;43.324;21.916;2023-04-09T23:43:15;994.0;;;9.8;86.0
53940;BME280;39850;43.324;21.916;2023-04-09T23:47:53;994.0;;;9.8;86.0
53940;BME280;39850;43.324;21.916;2023-04-09T23:52:35;994.0;;;9.7;87.0
53940;BME280;39850;43.324;21.916;2023-04-09T23:57:13;994.0;;;9.7;87.0
